sensor_id;sensor_type;location;lat;lon;timestamp;P1;durP1;ratioP1;P2;durP2;ratioP2
34405;SDS011;20658;45.630;8.886;2023-07-09T00:02:17;13.48;;;5.65;;
34405;SDS011;20658;45.630;8.886;2023-07-09T00:04:52;13.45;;;5.80;;
34405;SDS011;20658;45.630;8.886;2023-07-09T00:07:27;11.80;;;5.45;;
34405;SDS011;20658;45.630;8.886;2023-07-09T00:09:57;11.68;;;4.82;;
34405;SDS011;20658;45.630;8.886;2023-07-09T00:12:30;9.40;;;5.10;;
34405;SDS011;20658;45.630;8.886;2023-07-09T00:15:04;13.10;;;5.43;;
34405;SDS011;20658;45.630;8.886;2023-07-09T00:17:41;9.52;;;5.43;;
34405;SDS011;20658;45.630;8.886;2023-07-09T00:20:12;9.60;;;5.65;;
34405;SDS011;20658;45.630;8.886;2023-07-09T00:22:47;13.85;;;5.95;;
34405;SDS011;20658;45.630;8.886;2023-07-09T00:25:23;10.80;;;5.10;;
34405;SDS011;20658;45.630;8.886;2023-07-09T00:27:52;14.05;;;6.28;;
34405;SDS011;20658;45.630;8.886;2023-07-09T00:30:25;10.77;;;4.65;;
34405;SDS011;20658;45.630;8.886;2023-07-09T00:32:54;12.13;;;5.53;;
34405;SDS011;20658;45.630;8.886;2023-07-09T00:35:28;12.07;;;5.60;;
34405;SDS011;20658;45.630;8.886;2023-07-09T00:38:02;10.18;;;5.60;;
34405;SDS011;20658;45.630;8.886;2023-07-09T00:40:30;15.05;;;5.30;;
34405;SDS011;20658;45.630;8.886;2023-07-09T00:43:04;14.52;;;5.35;;
34405;SDS011;20658;45.630;8.886;2023-07-09T00:49:13;11.52;;;5.53;;
34405;SDS011;20658;45.630;8.886;2023-07-09T00:52:00;12.43;;;6.00;;
34405;SDS011;20658;45.630;8.886;2023-07-09T00:54:49;10.43;;;5.53;;
34405;SDS011;20658;45.630;8.886;2023-07-09T00:57:24;11.27;;;5.38;;
34405;SDS011;20658;45.630;8.886;2023-07-09T01:00:00;13.82;;;6.63;;
34405;SDS011;20658;45.630;8.886;2023-07-09T01:02:44;11.27;;;4.90;;
34405;SDS011;20658;45.630;8.886;2023-07-09T01:05:20;10.68;;;5.72;;
34405;SDS011;20658;45.630;8.886;2023-07-09T01:07:55;17.13;;;5.97;;
34405;SDS011;20658;45.630;8.886;2023-07-09T01:10:25;10.25;;;4.95;;
34405;SDS011;20658;45.630;8.886;2023-07-09T01:12:53;11.60;;;5.55;;
34405;SDS011;20658;45.630;8.886;2023-07-09T01:15:23;13.90;;;5.53;;
34405;SDS011;20658;45.630;8.886;2023-07-09T01:17:56;12.80;;;5.40;;
34405;SDS011;20658;45.630;8.886;2023-07-09T01:20:26;12.98;;;5.43;;
34405;SDS011;20658;45.630;8.886;2023-07-09T01:22:56;12.32;;;5.57;;
34405;SDS011;20658;45.630;8.886;2023-07-09T01:25:27;11.60;;;5.50;;
34405;SDS011;20658;45.630;8.886;2023-07-09T01:27:57;11.45;;;5.97;;
34405;SDS011;20658;45.630;8.886;2023-07-09T01:30:26;10.85;;;6.00;;
34405;SDS011;20658;45.630;8.886;2023-07-09T01:32:59;11.98;;;6.22;;
34405;SDS011;20658;45.630;8.886;2023-07-09T01:35:29;10.23;;;5.28;;
34405;SDS011;20658;45.630;8.886;2023-07-09T01:38:01;10.15;;;4.68;;
34405;SDS011;20658;45.630;8.886;2023-07-09T01:40:37;10.25;;;5.00;;
34405;SDS011;20658;45.630;8.886;2023-07-09T01:43:11;10.95;;;5.95;;
34405;SDS011;20658;45.630;8.886;2023-07-09T01:45:44;16.58;;;6.15;;
34405;SDS011;20658;45.630;8.886;2023-07-09T01:50:51;11.30;;;5.57;;
34405;SDS011;20658;45.630;8.886;2023-07-09T01:53:25;10.07;;;5.60;;
34405;SDS011;20658;45.630;8.886;2023-07-09T01:56:02;9.65;;;5.22;;
34405;SDS011;20658;45.630;8.886;2023-07-09T01:58:38;9.02;;;5.20;;
34405;SDS011;20658;45.630;8.886;2023-07-09T02:01:12;13.52;;;5.35;;
34405;SDS011;20658;45.630;8.886;2023-07-09T02:03:41;13.32;;;5.55;;
34405;SDS011;20658;45.630;8.886;2023-07-09T02:06:14;12.05;;;5.65;;
34405;SDS011;20658;45.630;8.886;2023-07-09T02:08:54;10.57;;;4.75;;
34405;SDS011;20658;45.630;8.886;2023-07-09T02:11:27;14.40;;;5.93;;
34405;SDS011;20658;45.630;8.886;2023-07-09T02:14:01;9.80;;;5.05;;
34405;SDS011;20658;45.630;8.886;2023-07-09T02:16:34;9.13;;;4.80;;
34405;SDS011;20658;45.630;8.886;2023-07-09T02:19:08;14.27;;;6.07;;
34405;SDS011;20658;45.630;8.886;2023-07-09T02:21:41;8.73;;;5.28;;
34405;SDS011;20658;45.630;8.886;2023-07-09T02:24:16;11.27;;;5.60;;
34405;SDS011;20658;45.630;8.886;2023-07-09T02:26:44;15.65;;;5.22;;
34405;SDS011;20658;45.630;8.886;2023-07-09T02:29:12;10.80;;;5.50;;
34405;SDS011;20658;45.630;8.886;2023-07-09T02:31:47;9.98;;;5.18;;
34405;SDS011;20658;45.630;8.886;2023-07-09T02:34:16;13.55;;;5.88;;
34405;SDS011;20658;45.630;8.886;2023-07-09T02:36:45;10.10;;;5.38;;
34405;SDS011;20658;45.630;8.886;2023-07-09T02:39:21;12.77;;;5.60;;
34405;SDS011;20658;45.630;8.886;2023-07-09T02:41:51;17.88;;;6.50;;
34405;SDS011;20658;45.630;8.886;2023-07-09T02:44:24;15.00;;;6.22;;
34405;SDS011;20658;45.630;8.886;2023-07-09T02:46:57;10.32;;;5.15;;
34405;SDS011;20658;45.630;8.886;2023-07-09T02:49:31;15.90;;;5.95;;
34405;SDS011;20658;45.630;8.886;2023-07-09T02:52:05;12.35;;;5.32;;
34405;SDS011;20658;45.630;8.886;2023-07-09T02:54:35;12.38;;;6.18;;
34405;SDS011;20658;45.630;8.886;2023-07-09T02:57:09;12.00;;;5.70;;
34405;SDS011;20658;45.630;8.886;2023-07-09T02:59:42;12.18;;;5.90;;
34405;SDS011;20658;45.630;8.886;2023-07-09T03:02:15;12.35;;;5.72;;
34405;SDS011;20658;45.630;8.886;2023-07-09T03:04:44;11.65;;;5.93;;
34405;SDS011;20658;45.630;8.886;2023-07-09T03:07:17;10.32;;;5.57;;
34405;SDS011;20658;45.630;8.886;2023-07-09T03:09:52;9.68;;;5.93;;
34405;SDS011;20658;45.630;8.886;2023-07-09T03:12:20;11.70;;;5.70;;
34405;SDS011;20658;45.630;8.886;2023-07-09T03:14:54;11.85;;;6.45;;
34405;SDS011;20658;45.630;8.886;2023-07-09T03:17:22;12.45;;;6.55;;
34405;SDS011;20658;45.630;8.886;2023-07-09T03:19:51;11.52;;;5.72;;
34405;SDS011;20658;45.630;8.886;2023-07-09T03:22:24;13.63;;;6.60;;
34405;SDS011;20658;45.630;8.886;2023-07-09T03:24:54;10.32;;;6.05;;
34405;SDS011;20658;45.630;8.886;2023-07-09T03:27:27;9.38;;;5.85;;
34405;SDS011;20658;45.630;8.886;2023-07-09T03:30:01;14.18;;;5.75;;
34405;SDS011;20658;45.630;8.886;2023-07-09T03:32:34;9.80;;;5.85;;
34405;SDS011;20658;45.630;8.886;2023-07-09T03:35:02;12.10;;;5.60;;
34405;SDS011;20658;45.630;8.886;2023-07-09T03:37:36;12.77;;;5.70;;
34405;SDS011;20658;45.630;8.886;2023-07-09T03:40:09;15.30;;;5.95;;
34405;SDS011;20658;45.630;8.886;2023-07-09T03:42:43;14.65;;;5.72;;
34405;SDS011;20658;45.630;8.886;2023-07-09T03:45:17;14.25;;;6.00;;
34405;SDS011;20658;45.630;8.886;2023-07-09T03:47:45;11.40;;;5.90;;
34405;SDS011;20658;45.630;8.886;2023-07-09T03:50:13;11.00;;;5.22;;
34405;SDS011;20658;45.630;8.886;2023-07-09T03:52:46;12.18;;;4.97;;
34405;SDS011;20658;45.630;8.886;2023-07-09T03:55:21;8.95;;;5.28;;
34405;SDS011;20658;45.630;8.886;2023-07-09T03:57:57;9.70;;;5.80;;
34405;SDS011;20658;45.630;8.886;2023-07-09T04:00:31;17.55;;;6.13;;
34405;SDS011;20658;45.630;8.886;2023-07-09T04:03:05;10.13;;;6.38;;
34405;SDS011;20658;45.630;8.886;2023-07-09T04:05:39;10.23;;;5.93;;
34405;SDS011;20658;45.630;8.886;2023-07-09T04:08:13;9.18;;;5.53;;
34405;SDS011;20658;45.630;8.886;2023-07-09T04:10:47;11.25;;;5.72;;
34405;SDS011;20658;45.630;8.886;2023-07-09T04:13:20;10.65;;;5.63;;
34405;SDS011;20658;45.630;8.886;2023-07-09T04:15:54;15.60;;;5.75;;
34405;SDS011;20658;45.630;8.886;2023-07-09T04:18:27;11.98;;;5.80;;
34405;SDS011;20658;45.630;8.886;2023-07-09T04:21:01;10.75;;;5.78;;
34405;SDS011;20658;45.630;8.886;2023-07-09T04:23:35;13.50;;;5.97;;
34405;SDS011;20658;45.630;8.886;2023-07-09T04:26:09;11.68;;;5.70;;
34405;SDS011;20658;45.630;8.886;2023-07-09T04:28:46;15.18;;;5.40;;
34405;SDS011;20658;45.630;8.886;2023-07-09T04:31:19;9.45;;;5.10;;
34405;SDS011;20658;45.630;8.886;2023-07-09T04:33:52;13.27;;;5.65;;
34405;SDS011;20658;45.630;8.886;2023-07-09T04:36:26;11.68;;;5.78;;
34405;SDS011;20658;45.630;8.886;2023-07-09T04:38:59;10.93;;;5.20;;
34405;SDS011;20658;45.630;8.886;2023-07-09T04:41:34;14.95;;;5.57;;
34405;SDS011;20658;45.630;8.886;2023-07-09T04:44:02;9.30;;;5.45;;
34405;SDS011;20658;45.630;8.886;2023-07-09T04:46:35;12.77;;;5.72;;
34405;SDS011;20658;45.630;8.886;2023-07-09T04:49:04;10.70;;;6.03;;
34405;SDS011;20658;45.630;8.886;2023-07-09T04:51:37;10.98;;;5.30;;
34405;SDS011;20658;45.630;8.886;2023-07-09T04:54:10;12.60;;;5.65;;
34405;SDS011;20658;45.630;8.886;2023-07-09T04:56:47;16.42;;;5.70;;
34405;SDS011;20658;45.630;8.886;2023-07-09T04:59:21;9.95;;;4.70;;
34405;SDS011;20658;45.630;8.886;2023-07-09T05:01:55;9.43;;;5.22;;
34405;SDS011;20658;45.630;8.886;2023-07-09T05:04:28;11.60;;;5.22;;
34405;SDS011;20658;45.630;8.886;2023-07-09T05:07:01;10.40;;;5.45;;
34405;SDS011;20658;45.630;8.886;2023-07-09T05:09:35;13.32;;;6.45;;
34405;SDS011;20658;45.630;8.886;2023-07-09T05:12:10;10.35;;;5.53;;
34405;SDS011;20658;45.630;8.886;2023-07-09T05:14:44;11.27;;;5.22;;
34405;SDS011;20658;45.630;8.886;2023-07-09T05:17:12;8.07;;;4.97;;
34405;SDS011;20658;45.630;8.886;2023-07-09T05:19:46;15.35;;;5.78;;
34405;SDS011;20658;45.630;8.886;2023-07-09T05:22:19;8.43;;;4.43;;
34405;SDS011;20658;45.630;8.886;2023-07-09T05:24:53;15.60;;;5.13;;
34405;SDS011;20658;45.630;8.886;2023-07-09T05:27:27;9.20;;;4.82;;
34405;SDS011;20658;45.630;8.886;2023-07-09T05:30:00;11.77;;;4.93;;
34405;SDS011;20658;45.630;8.886;2023-07-09T05:32:34;10.15;;;5.03;;
34405;SDS011;20658;45.630;8.886;2023-07-09T05:35:09;10.07;;;4.97;;
34405;SDS011;20658;45.630;8.886;2023-07-09T05:37:42;13.32;;;5.25;;
34405;SDS011;20658;45.630;8.886;2023-07-09T05:40:15;16.05;;;5.80;;
34405;SDS011;20658;45.630;8.886;2023-07-09T05:42:50;11.80;;;4.95;;
34405;SDS011;20658;45.630;8.886;2023-07-09T05:45:23;13.00;;;4.78;;
34405;SDS011;20658;45.630;8.886;2023-07-09T05:47:57;9.95;;;5.00;;
34405;SDS011;20658;45.630;8.886;2023-07-09T05:50:32;11.13;;;5.60;;
34405;SDS011;20658;45.630;8.886;2023-07-09T05:53:07;9.20;;;4.57;;
34405;SDS011;20658;45.630;8.886;2023-07-09T05:55:40;12.45;;;5.20;;
34405;SDS011;20658;45.630;8.886;2023-07-09T05:58:15;12.05;;;4.90;;
34405;SDS011;20658;45.630;8.886;2023-07-09T06:00:49;9.57;;;4.80;;
34405;SDS011;20658;45.630;8.886;2023-07-09T06:03:25;8.50;;;4.57;;
34405;SDS011;20658;45.630;8.886;2023-07-09T06:05:59;7.97;;;4.68;;
34405;SDS011;20658;45.630;8.886;2023-07-09T06:08:33;11.10;;;4.95;;
34405;SDS011;20658;45.630;8.886;2023-07-09T06:11:06;11.82;;;5.15;;
34405;SDS011;20658;45.630;8.886;2023-07-09T06:13:41;12.43;;;5.55;;
34405;SDS011;20658;45.630;8.886;2023-07-09T06:16:14;11.43;;;5.03;;
34405;SDS011;20658;45.630;8.886;2023-07-09T06:18:50;9.93;;;4.95;;
34405;SDS011;20658;45.630;8.886;2023-07-09T06:21:23;11.52;;;5.32;;
34405;SDS011;20658;45.630;8.886;2023-07-09T06:23:57;10.07;;;5.18;;
34405;SDS011;20658;45.630;8.886;2023-07-09T06:26:30;10.82;;;5.50;;
34405;SDS011;20658;45.630;8.886;2023-07-09T06:29:05;11.98;;;5.45;;
34405;SDS011;20658;45.630;8.886;2023-07-09T06:31:38;11.95;;;5.43;;
34405;SDS011;20658;45.630;8.886;2023-07-09T06:34:14;11.70;;;5.28;;
34405;SDS011;20658;45.630;8.886;2023-07-09T06:36:47;10.85;;;4.88;;
34405;SDS011;20658;45.630;8.886;2023-07-09T06:39:20;12.35;;;5.10;;
34405;SDS011;20658;45.630;8.886;2023-07-09T06:41:54;8.82;;;4.60;;
34405;SDS011;20658;45.630;8.886;2023-07-09T06:44:55;10.80;;;5.10;;
34405;SDS011;20658;45.630;8.886;2023-07-09T06:47:28;10.88;;;4.82;;
34405;SDS011;20658;45.630;8.886;2023-07-09T06:50:01;12.35;;;4.95;;
34405;SDS011;20658;45.630;8.886;2023-07-09T06:52:35;8.85;;;4.72;;
34405;SDS011;20658;45.630;8.886;2023-07-09T06:55:08;11.98;;;4.35;;
34405;SDS011;20658;45.630;8.886;2023-07-09T06:57:41;11.40;;;5.38;;
34405;SDS011;20658;45.630;8.886;2023-07-09T07:00:16;11.85;;;5.25;;
34405;SDS011;20658;45.630;8.886;2023-07-09T07:02:50;11.30;;;4.50;;
34405;SDS011;20658;45.630;8.886;2023-07-09T07:05:23;9.10;;;4.57;;
34405;SDS011;20658;45.630;8.886;2023-07-09T07:07:53;11.68;;;4.97;;
34405;SDS011;20658;45.630;8.886;2023-07-09T07:10:26;11.82;;;4.90;;
34405;SDS011;20658;45.630;8.886;2023-07-09T07:12:56;9.52;;;3.97;;
34405;SDS011;20658;45.630;8.886;2023-07-09T07:15:30;9.93;;;4.93;;
34405;SDS011;20658;45.630;8.886;2023-07-09T07:18:04;12.75;;;4.85;;
34405;SDS011;20658;45.630;8.886;2023-07-09T07:20:37;10.73;;;4.70;;
34405;SDS011;20658;45.630;8.886;2023-07-09T07:23:11;11.10;;;4.90;;
34405;SDS011;20658;45.630;8.886;2023-07-09T07:25:44;12.38;;;5.05;;
34405;SDS011;20658;45.630;8.886;2023-07-09T07:28:18;8.43;;;4.55;;
34405;SDS011;20658;45.630;8.886;2023-07-09T07:31:00;11.90;;;4.82;;
34405;SDS011;20658;45.630;8.886;2023-07-09T07:33:34;13.57;;;5.00;;
34405;SDS011;20658;45.630;8.886;2023-07-09T07:36:08;9.43;;;5.28;;
34405;SDS011;20658;45.630;8.886;2023-07-09T07:38:42;13.38;;;5.50;;
34405;SDS011;20658;45.630;8.886;2023-07-09T07:41:10;12.60;;;5.13;;
34405;SDS011;20658;45.630;8.886;2023-07-09T07:43:43;12.23;;;4.70;;
34405;SDS011;20658;45.630;8.886;2023-07-09T07:46:18;10.93;;;4.13;;
34405;SDS011;20658;45.630;8.886;2023-07-09T07:48:51;7.50;;;4.38;;
34405;SDS011;20658;45.630;8.886;2023-07-09T07:51:24;10.63;;;4.85;;
34405;SDS011;20658;45.630;8.886;2023-07-09T07:53:59;14.10;;;5.15;;
34405;SDS011;20658;45.630;8.886;2023-07-09T07:56:32;9.73;;;4.18;;
34405;SDS011;20658;45.630;8.886;2023-07-09T07:59:05;16.40;;;5.38;;
34405;SDS011;20658;45.630;8.886;2023-07-09T08:01:40;10.88;;;4.88;;
34405;SDS011;20658;45.630;8.886;2023-07-09T08:04:14;12.57;;;5.20;;
34405;SDS011;20658;45.630;8.886;2023-07-09T08:06:47;12.23;;;4.82;;
34405;SDS011;20658;45.630;8.886;2023-07-09T08:09:20;9.88;;;4.50;;
34405;SDS011;20658;45.630;8.886;2023-07-09T08:11:54;11.45;;;5.05;;
34405;SDS011;20658;45.630;8.886;2023-07-09T08:14:23;10.93;;;4.25;;
34405;SDS011;20658;45.630;8.886;2023-07-09T08:16:57;10.73;;;4.38;;
34405;SDS011;20658;45.630;8.886;2023-07-09T08:19:31;11.55;;;4.70;;
34405;SDS011;20658;45.630;8.886;2023-07-09T08:22:05;9.95;;;4.45;;
34405;SDS011;20658;45.630;8.886;2023-07-09T08:24:38;9.27;;;3.90;;
34405;SDS011;20658;45.630;8.886;2023-07-09T08:27:11;10.10;;;4.00;;
34405;SDS011;20658;45.630;8.886;2023-07-09T08:29:45;11.77;;;4.80;;
34405;SDS011;20658;45.630;8.886;2023-07-09T08:32:15;12.18;;;4.38;;
34405;SDS011;20658;45.630;8.886;2023-07-09T08:34:48;9.57;;;4.65;;
34405;SDS011;20658;45.630;8.886;2023-07-09T08:37:22;11.20;;;4.65;;
34405;SDS011;20658;45.630;8.886;2023-07-09T08:39:55;10.43;;;4.63;;
34405;SDS011;20658;45.630;8.886;2023-07-09T08:42:31;9.00;;;4.35;;
34405;SDS011;20658;45.630;8.886;2023-07-09T08:45:18;9.80;;;4.68;;
34405;SDS011;20658;45.630;8.886;2023-07-09T08:48:06;10.02;;;4.40;;
34405;SDS011;20658;45.630;8.886;2023-07-09T08:50:51;10.18;;;4.10;;
34405;SDS011;20658;45.630;8.886;2023-07-09T08:53:30;9.73;;;4.10;;
34405;SDS011;20658;45.630;8.886;2023-07-09T08:56:12;8.95;;;4.72;;
34405;SDS011;20658;45.630;8.886;2023-07-09T08:58:47;12.80;;;4.57;;
34405;SDS011;20658;45.630;8.886;2023-07-09T09:01:24;10.15;;;4.10;;
34405;SDS011;20658;45.630;8.886;2023-07-09T09:04:04;10.70;;;4.68;;
34405;SDS011;20658;45.630;8.886;2023-07-09T09:06:41;8.88;;;4.18;;
34405;SDS011;20658;45.630;8.886;2023-07-09T09:09:21;7.75;;;4.15;;
34405;SDS011;20658;45.630;8.886;2023-07-09T09:11:57;10.23;;;4.28;;
34405;SDS011;20658;45.630;8.886;2023-07-09T09:14:43;10.85;;;3.97;;
34405;SDS011;20658;45.630;8.886;2023-07-09T09:17:20;13.25;;;4.32;;
34405;SDS011;20658;45.630;8.886;2023-07-09T09:19:55;5.68;;;3.25;;
34405;SDS011;20658;45.630;8.886;2023-07-09T09:22:29;9.48;;;4.00;;
34405;SDS011;20658;45.630;8.886;2023-07-09T09:25:11;7.60;;;4.55;;
34405;SDS011;20658;45.630;8.886;2023-07-09T09:27:56;9.57;;;4.43;;
34405;SDS011;20658;45.630;8.886;2023-07-09T09:30:31;8.27;;;3.42;;
34405;SDS011;20658;45.630;8.886;2023-07-09T09:33:06;9.32;;;4.07;;
34405;SDS011;20658;45.630;8.886;2023-07-09T09:35:44;7.18;;;4.25;;
34405;SDS011;20658;45.630;8.886;2023-07-09T09:38:20;9.48;;;4.18;;
34405;SDS011;20658;45.630;8.886;2023-07-09T09:40:50;12.82;;;4.53;;
34405;SDS011;20658;45.630;8.886;2023-07-09T09:43:23;7.18;;;3.67;;
34405;SDS011;20658;45.630;8.886;2023-07-09T09:45:58;12.77;;;4.00;;
34405;SDS011;20658;45.630;8.886;2023-07-09T09:48:33;8.88;;;4.32;;
34405;SDS011;20658;45.630;8.886;2023-07-09T09:51:09;11.07;;;4.82;;
34405;SDS011;20658;45.630;8.886;2023-07-09T09:53:39;8.73;;;4.15;;
34405;SDS011;20658;45.630;8.886;2023-07-09T09:56:18;9.02;;;4.28;;
34405;SDS011;20658;45.630;8.886;2023-07-09T09:58:51;8.85;;;4.78;;
34405;SDS011;20658;45.630;8.886;2023-07-09T10:01:27;8.98;;;4.15;;
34405;SDS011;20658;45.630;8.886;2023-07-09T10:04:06;7.68;;;3.97;;
34405;SDS011;20658;45.630;8.886;2023-07-09T10:06:41;11.35;;;4.30;;
34405;SDS011;20658;45.630;8.886;2023-07-09T10:09:19;8.98;;;4.15;;
34405;SDS011;20658;45.630;8.886;2023-07-09T10:12:08;8.02;;;4.40;;
34405;SDS011;20658;45.630;8.886;2023-07-09T10:14:51;9.82;;;4.78;;
34405;SDS011;20658;45.630;8.886;2023-07-09T10:17:36;7.75;;;4.05;;
34405;SDS011;20658;45.630;8.886;2023-07-09T10:20:17;10.07;;;4.97;;
34405;SDS011;20658;45.630;8.886;2023-07-09T10:22:57;10.00;;;4.10;;
34405;SDS011;20658;45.630;8.886;2023-07-09T10:25:53;10.10;;;4.25;;
34405;SDS011;20658;45.630;8.886;2023-07-09T10:28:48;8.15;;;3.85;;
34405;SDS011;20658;45.630;8.886;2023-07-09T10:31:49;9.40;;;4.03;;
34405;SDS011;20658;45.630;8.886;2023-07-09T10:34:32;7.55;;;4.20;;
34405;SDS011;20658;45.630;8.886;2023-07-09T10:37:22;13.23;;;4.45;;
34405;SDS011;20658;45.630;8.886;2023-07-09T10:40:18;8.35;;;4.25;;
34405;SDS011;20658;45.630;8.886;2023-07-09T10:43:03;9.38;;;4.47;;
34405;SDS011;20658;45.630;8.886;2023-07-09T10:45:44;9.18;;;5.07;;
34405;SDS011;20658;45.630;8.886;2023-07-09T10:48:16;8.23;;;4.00;;
34405;SDS011;20658;45.630;8.886;2023-07-09T10:50:53;7.63;;;4.05;;
34405;SDS011;20658;45.630;8.886;2023-07-09T10:53:28;8.45;;;4.22;;
34405;SDS011;20658;45.630;8.886;2023-07-09T10:56:10;9.52;;;5.07;;
34405;SDS011;20658;45.630;8.886;2023-07-09T10:58:55;12.18;;;4.05;;
34405;SDS011;20658;45.630;8.886;2023-07-09T11:01:33;11.38;;;4.93;;
34405;SDS011;20658;45.630;8.886;2023-07-09T11:04:14;13.25;;;5.00;;
34405;SDS011;20658;45.630;8.886;2023-07-09T11:07:03;7.47;;;3.87;;
34405;SDS011;20658;45.630;8.886;2023-07-09T11:09:45;10.10;;;4.40;;
34405;SDS011;20658;45.630;8.886;2023-07-09T11:12:23;8.35;;;4.70;;
34405;SDS011;20658;45.630;8.886;2023-07-09T11:14:58;7.93;;;4.20;;
34405;SDS011;20658;45.630;8.886;2023-07-09T11:17:36;13.13;;;5.22;;
34405;SDS011;20658;45.630;8.886;2023-07-09T11:20:16;13.02;;;4.88;;
34405;SDS011;20658;45.630;8.886;2023-07-09T11:22:53;13.18;;;5.47;;
34405;SDS011;20658;45.630;8.886;2023-07-09T11:25:30;10.40;;;5.72;;
34405;SDS011;20658;45.630;8.886;2023-07-09T11:28:15;11.30;;;6.53;;
34405;SDS011;20658;45.630;8.886;2023-07-09T11:30:49;13.00;;;4.85;;
34405;SDS011;20658;45.630;8.886;2023-07-09T11:33:26;9.10;;;4.72;;
34405;SDS011;20658;45.630;8.886;2023-07-09T11:36:10;14.63;;;4.00;;
34405;SDS011;20658;45.630;8.886;2023-07-09T11:38:52;10.32;;;4.07;;
34405;SDS011;20658;45.630;8.886;2023-07-09T11:41:34;13.88;;;4.22;;
34405;SDS011;20658;45.630;8.886;2023-07-09T11:44:16;9.90;;;4.30;;
34405;SDS011;20658;45.630;8.886;2023-07-09T11:47:04;7.50;;;3.72;;
34405;SDS011;20658;45.630;8.886;2023-07-09T11:52:31;8.13;;;3.88;;
34405;SDS011;20658;45.630;8.886;2023-07-09T11:55:16;9.95;;;3.63;;
34405;SDS011;20658;45.630;8.886;2023-07-09T11:57:59;10.05;;;3.58;;
34405;SDS011;20658;45.630;8.886;2023-07-09T12:00:38;7.45;;;3.75;;
34405;SDS011;20658;45.630;8.886;2023-07-09T12:03:15;8.90;;;3.95;;
34405;SDS011;20658;45.630;8.886;2023-07-09T12:05:53;8.98;;;3.70;;
34405;SDS011;20658;45.630;8.886;2023-07-09T12:08:28;7.38;;;4.15;;
34405;SDS011;20658;45.630;8.886;2023-07-09T12:11:16;8.57;;;4.13;;
34405;SDS011;20658;45.630;8.886;2023-07-09T12:13:54;8.27;;;4.20;;
34405;SDS011;20658;45.630;8.886;2023-07-09T12:16:38;7.22;;;3.80;;
34405;SDS011;20658;45.630;8.886;2023-07-09T12:19:14;8.13;;;4.00;;
34405;SDS011;20658;45.630;8.886;2023-07-09T12:21:49;9.15;;;3.70;;
34405;SDS011;20658;45.630;8.886;2023-07-09T12:24:28;7.35;;;3.67;;
34405;SDS011;20658;45.630;8.886;2023-07-09T12:27:17;6.93;;;3.63;;
34405;SDS011;20658;45.630;8.886;2023-07-09T12:29:54;9.55;;;4.20;;
34405;SDS011;20658;45.630;8.886;2023-07-09T12:32:31;7.22;;;3.97;;
34405;SDS011;20658;45.630;8.886;2023-07-09T12:35:04;8.98;;;4.18;;
34405;SDS011;20658;45.630;8.886;2023-07-09T12:37:45;5.07;;;3.40;;
34405;SDS011;20658;45.630;8.886;2023-07-09T12:40:21;7.90;;;3.78;;
34405;SDS011;20658;45.630;8.886;2023-07-09T12:43:01;9.07;;;5.13;;
34405;SDS011;20658;45.630;8.886;2023-07-09T12:45:35;7.68;;;4.40;;
34405;SDS011;20658;45.630;8.886;2023-07-09T12:48:10;7.07;;;4.28;;
34405;SDS011;20658;45.630;8.886;2023-07-09T12:50:48;13.07;;;4.90;;
34405;SDS011;20658;45.630;8.886;2023-07-09T12:53:24;8.43;;;4.55;;
34405;SDS011;20658;45.630;8.886;2023-07-09T12:56:07;7.10;;;4.28;;
34405;SDS011;20658;45.630;8.886;2023-07-09T12:58:46;11.40;;;4.50;;
34405;SDS011;20658;45.630;8.886;2023-07-09T13:01:19;8.57;;;4.43;;
34405;SDS011;20658;45.630;8.886;2023-07-09T13:03:55;8.25;;;4.30;;
34405;SDS011;20658;45.630;8.886;2023-07-09T13:06:29;9.60;;;4.40;;
34405;SDS011;20658;45.630;8.886;2023-07-09T13:09:11;10.80;;;4.40;;
34405;SDS011;20658;45.630;8.886;2023-07-09T13:11:52;7.43;;;4.30;;
34405;SDS011;20658;45.630;8.886;2023-07-09T13:14:29;12.60;;;4.30;;
34405;SDS011;20658;45.630;8.886;2023-07-09T13:17:04;9.00;;;4.30;;
34405;SDS011;20658;45.630;8.886;2023-07-09T13:19:40;8.70;;;4.70;;
34405;SDS011;20658;45.630;8.886;2023-07-09T13:22:14;9.23;;;4.57;;
34405;SDS011;20658;45.630;8.886;2023-07-09T13:24:44;10.38;;;4.50;;
34405;SDS011;20658;45.630;8.886;2023-07-09T13:27:18;9.20;;;4.03;;
34405;SDS011;20658;45.630;8.886;2023-07-09T13:29:52;8.57;;;4.47;;
34405;SDS011;20658;45.630;8.886;2023-07-09T13:32:25;8.15;;;4.30;;
34405;SDS011;20658;45.630;8.886;2023-07-09T13:35:00;8.02;;;3.92;;
34405;SDS011;20658;45.630;8.886;2023-07-09T13:37:33;9.63;;;4.40;;
34405;SDS011;20658;45.630;8.886;2023-07-09T13:40:07;9.13;;;4.15;;
34405;SDS011;20658;45.630;8.886;2023-07-09T13:42:43;10.68;;;4.07;;
34405;SDS011;20658;45.630;8.886;2023-07-09T13:45:18;8.52;;;4.25;;
34405;SDS011;20658;45.630;8.886;2023-07-09T13:47:50;9.30;;;4.22;;
34405;SDS011;20658;45.630;8.886;2023-07-09T13:50:21;9.63;;;4.38;;
34405;SDS011;20658;45.630;8.886;2023-07-09T13:52:54;8.48;;;3.70;;
34405;SDS011;20658;45.630;8.886;2023-07-09T13:55:28;8.35;;;4.53;;
34405;SDS011;20658;45.630;8.886;2023-07-09T13:57:56;8.25;;;4.10;;
34405;SDS011;20658;45.630;8.886;2023-07-09T14:00:30;7.30;;;3.67;;
34405;SDS011;20658;45.630;8.886;2023-07-09T14:03:04;9.90;;;4.38;;
34405;SDS011;20658;45.630;8.886;2023-07-09T14:05:48;7.93;;;4.43;;
34405;SDS011;20658;45.630;8.886;2023-07-09T14:08:17;7.93;;;4.30;;
34405;SDS011;20658;45.630;8.886;2023-07-09T14:10:53;8.45;;;4.32;;
34405;SDS011;20658;45.630;8.886;2023-07-09T14:13:24;11.95;;;4.78;;
34405;SDS011;20658;45.630;8.886;2023-07-09T14:15:53;8.27;;;4.40;;
34405;SDS011;20658;45.630;8.886;2023-07-09T14:18:29;8.93;;;4.43;;
34405;SDS011;20658;45.630;8.886;2023-07-09T14:21:11;8.45;;;3.75;;
34405;SDS011;20658;45.630;8.886;2023-07-09T14:23:46;8.05;;;4.15;;
34405;SDS011;20658;45.630;8.886;2023-07-09T14:26:19;10.82;;;4.57;;
34405;SDS011;20658;45.630;8.886;2023-07-09T14:28:53;12.98;;;4.72;;
34405;SDS011;20658;45.630;8.886;2023-07-09T14:31:24;7.82;;;4.78;;
34405;SDS011;20658;45.630;8.886;2023-07-09T14:34:07;8.43;;;4.50;;
34405;SDS011;20658;45.630;8.886;2023-07-09T14:36:55;9.95;;;4.82;;
34405;SDS011;20658;45.630;8.886;2023-07-09T14:39:32;11.57;;;4.80;;
34405;SDS011;20658;45.630;8.886;2023-07-09T14:42:10;11.57;;;4.85;;
34405;SDS011;20658;45.630;8.886;2023-07-09T14:44:47;8.05;;;4.50;;
34405;SDS011;20658;45.630;8.886;2023-07-09T14:47:22;15.18;;;4.90;;
34405;SDS011;20658;45.630;8.886;2023-07-09T14:50:06;12.63;;;4.90;;
34405;SDS011;20658;45.630;8.886;2023-07-09T14:52:44;9.93;;;4.97;;
34405;SDS011;20658;45.630;8.886;2023-07-09T14:55:20;9.38;;;4.70;;
34405;SDS011;20658;45.630;8.886;2023-07-09T14:57:56;8.45;;;4.35;;
34405;SDS011;20658;45.630;8.886;2023-07-09T15:00:32;8.48;;;4.63;;
34405;SDS011;20658;45.630;8.886;2023-07-09T15:03:07;9.05;;;3.97;;
34405;SDS011;20658;45.630;8.886;2023-07-09T15:05:42;10.90;;;4.80;;
34405;SDS011;20658;45.630;8.886;2023-07-09T15:08:18;7.75;;;4.88;;
34405;SDS011;20658;45.630;8.886;2023-07-09T15:10:54;10.07;;;4.65;;
34405;SDS011;20658;45.630;8.886;2023-07-09T15:13:27;11.25;;;4.93;;
34405;SDS011;20658;45.630;8.886;2023-07-09T15:16:03;13.27;;;4.72;;
34405;SDS011;20658;45.630;8.886;2023-07-09T15:18:41;7.78;;;4.25;;
34405;SDS011;20658;45.630;8.886;2023-07-09T15:21:14;8.10;;;4.25;;
34405;SDS011;20658;45.630;8.886;2023-07-09T15:23:54;11.30;;;4.30;;
34405;SDS011;20658;45.630;8.886;2023-07-09T15:26:28;12.10;;;4.38;;
34405;SDS011;20658;45.630;8.886;2023-07-09T15:29:01;17.90;;;5.10;;
34405;SDS011;20658;45.630;8.886;2023-07-09T15:31:37;10.55;;;4.05;;
34405;SDS011;20658;45.630;8.886;2023-07-09T15:34:11;11.65;;;5.03;;
34405;SDS011;20658;45.630;8.886;2023-07-09T15:36:47;7.55;;;3.60;;
34405;SDS011;20658;45.630;8.886;2023-07-09T15:39:23;8.18;;;3.67;;